Terminal Aerodrome Forecast
Issued by NWS

Home | Current Version | Previous Version | Text Only | Print | Product List | Glossary On
Versions: 1 2 3 4 5 6 7 8 9 10 11 12 13 14 15 16 17 18 19 20 21 22 23 24 25 26 27 28
000
FTUS45 KGJT 222327
TAFMTJ
TAF
KMTJ 222327Z 2300/2324 05006KT P6SM VCTS SCT050CB BKN070
      TEMPO 2300/2301 VRB10G20KT -TSRA SCT060 BKN080CB
     FM230200 16005KT P6SM VCSH BKN080
     FM231200 13006KT P6SM VCSH SCT060 BKN080
     FM231800 29005KT P6SM BKN100=

USA.gov is the U.S. government's official web portal to all federal, state and local government web resources and services.